Time;durP1;ratioP1;P1;durP2;ratioP2;P2;SDS_P1;SDS_P2;PMS_P1;PMS_P2;Temp;Humidity;BMP_temperature;BMP_pressure;BME280_temperature;BME280_humidity;BME280_pressure;Samples;Min_cycle;Max_cycle;Signal;HPM_P1;HPM_P2
2022/09/12 00:02:23;;;;;;;1.88;1.67;;;16.10;99.90;;;;;;5035368;28;20183;-57
2022/09/12 00:04:48;;;;;;;1.50;1.40;;;16.20;99.90;;;;;;5035692;28;20290;-58
2022/09/12 00:07:14;;;;;;;1.25;1.15;;;16.10;99.90;;;;;;5034715;28;20184;-58
2022/09/12 00:09:40;;;;;;;1.50;1.33;;;16.10;99.90;;;;;;5034394;28;20190;-58
2022/09/12 00:12:06;;;;;;;1.80;1.38;;;16.10;99.90;;;;;;5035465;28;20225;-58
2022/09/12 00:14:32;;;;;;;2.72;1.60;;;16.10;99.90;;;;;;5035294;28;20584;-59
2022/09/12 00:16:59;;;;;;;1.83;1.58;;;16.10;99.90;;;;;;5035226;28;20234;-59
2022/09/12 00:19:29;;;;;;;2.00;1.58;;;16.10;99.90;;;;;;5035433;28;20534;-59
2022/09/12 00:21:55;;;;;;;1.58;1.48;;;16.10;99.90;;;;;;5034847;28;20211;-59
2022/09/12 00:24:21;;;;;;;1.42;1.23;;;16.00;99.90;;;;;;5035261;28;20200;-58
2022/09/12 00:26:47;;;;;;;2.17;1.70;;;16.00;99.90;;;;;;5035162;28;20199;-58
2022/09/12 00:29:19;;;;;;;2.25;1.83;;;16.00;99.90;;;;;;5035011;28;20187;-58
2022/09/12 00:31:45;;;;;;;1.80;1.55;;;16.00;99.90;;;;;;5034929;28;20234;-58
2022/09/12 00:34:10;;;;;;;2.17;1.50;;;16.00;99.90;;;;;;5033952;28;20176;-58
2022/09/12 00:36:37;;;;;;;2.20;1.45;;;15.90;99.90;;;;;;5033836;28;20180;-59
2022/09/12 00:39:04;;;;;;;1.85;1.60;;;15.90;99.90;;;;;;5034861;28;20183;-59
2022/09/12 00:41:34;;;;;;;2.40;1.50;;;15.90;99.90;;;;;;5034809;28;20568;-58
2022/09/12 00:44:09;;;;;;;3.45;1.70;;;15.90;99.90;;;;;;5034730;28;20176;-58
2022/09/12 00:47:15;;;;;;;2.95;2.20;;;15.90;99.90;;;;;;5032491;28;20240;-58
2022/09/12 00:49:40;;;;;;;2.80;1.60;;;15.80;99.90;;;;;;5023819;28;20176;-58
2022/09/12 00:52:10;;;;;;;2.10;1.73;;;15.80;99.90;;;;;;5034640;28;20175;-58
2022/09/12 00:54:47;;;;;;;2.80;2.00;;;15.80;99.90;;;;;;5034580;28;20180;-58
2022/09/12 00:57:15;;;;;;;2.85;2.00;;;15.80;99.90;;;;;;5034764;28;20174;-58
2022/09/12 00:59:47;;;;;;;2.65;1.70;;;15.80;99.90;;;;;;5034443;28;20183;-58
2022/09/12 01:02:14;;;;;;;1.95;1.50;;;15.80;99.90;;;;;;5034639;28;20259;-58
2022/09/12 01:04:40;;;;;;;2.13;1.60;;;15.80;99.90;;;;;;5034407;28;20630;-58
2022/09/12 01:07:07;;;;;;;2.00;1.50;;;15.80;99.90;;;;;;5034277;28;20171;-58
2022/09/12 01:09:35;;;;;;;1.85;1.55;;;15.70;99.90;;;;;;5033255;28;20184;-59
2022/09/12 01:12:01;;;;;;;1.90;1.70;;;15.70;99.90;;;;;;5034169;28;20550;-58
2022/09/12 01:14:28;;;;;;;2.00;1.80;;;15.70;99.90;;;;;;5034263;28;20188;-58
2022/09/12 01:16:54;;;;;;;2.40;1.80;;;15.70;99.90;;;;;;5034161;28;20171;-59
2022/09/12 01:19:31;;;;;;;4.75;1.90;;;15.70;99.90;;;;;;5032876;28;20534;-58
2022/09/12 01:22:16;;;;;;;1.88;1.50;;;15.70;99.90;;;;;;5033695;28;20218;-59
2022/09/12 01:25:03;;;;;;;2.72;1.95;;;15.70;99.90;;;;;;5033953;28;20183;-59
2022/09/12 01:28:05;;;;;;;2.50;1.80;;;15.70;99.90;;;;;;5033918;28;20234;-58
2022/09/12 01:30:44;;;;;;;2.08;1.88;;;15.70;99.90;;;;;;5034032;28;20672;-58
2022/09/12 01:33:49;;;;;;;2.50;1.90;;;15.70;99.90;;;;;;5033965;28;20204;-58
2022/09/12 01:36:26;;;;;;;2.28;1.83;;;15.70;99.90;;;;;;5011777;28;20176;-58
2022/09/12 01:39:03;;;;;;;2.88;2.17;;;15.70;99.90;;;;;;5030786;28;20184;-58
2022/09/12 01:41:42;;;;;;;2.28;2.03;;;15.70;99.90;;;;;;5033671;28;20330;-58
2022/09/12 01:44:14;;;;;;;2.67;1.80;;;15.70;99.90;;;;;;5033747;28;20179;-58
2022/09/12 01:46:49;;;;;;;2.83;1.70;;;15.70;99.90;;;;;;5033568;28;20622;-58
2022/09/12 01:49:26;;;;;;;3.30;2.00;;;15.70;99.90;;;;;;5033814;28;20242;-58
2022/09/12 01:51:57;;;;;;;2.33;1.63;;;15.70;99.90;;;;;;5033647;28;20172;-58
2022/09/12 01:54:38;;;;;;;2.40;1.80;;;15.70;99.90;;;;;;5033673;28;20179;-58
2022/09/12 01:57:13;;;;;;;2.45;1.85;;;15.70;99.90;;;;;;5033077;28;20815;-58
2022/09/12 01:59:52;;;;;;;3.28;2.22;;;15.60;99.90;;;;;;5032316;28;20644;-58
2022/09/12 02:02:24;;;;;;;3.00;1.90;;;15.60;99.90;;;;;;5033683;28;20625;-58
2022/09/12 02:04:51;;;;;;;3.17;2.10;;;15.60;99.90;;;;;;5033506;28;20171;-59
2022/09/12 02:07:30;;;;;;;3.40;2.13;;;15.60;99.90;;;;;;5033154;28;20637;-58
2022/09/12 02:10:07;;;;;;;3.42;2.15;;;15.60;99.90;;;;;;5033485;28;20538;-58
2022/09/12 02:12:56;;;;;;;2.70;2.33;;;15.60;99.90;;;;;;5033469;28;20167;-59
2022/09/12 02:15:27;;;;;;;2.80;2.10;;;15.60;99.90;;;;;;5033505;28;20191;-59
2022/09/12 02:17:57;;;;;;;1.73;1.63;;;15.60;99.90;;;;;;5033126;28;20199;-58
2022/09/12 02:20:27;;;;;;;2.25;2.05;;;15.60;99.90;;;;;;5033246;28;20723;-58
2022/09/12 02:22:55;;;;;;;2.30;2.00;;;15.60;99.90;;;;;;5033127;28;20206;-59
2022/09/12 02:25:23;;;;;;;2.60;2.00;;;15.50;99.90;;;;;;5033096;28;20207;-58
2022/09/12 02:27:52;;;;;;;2.55;1.98;;;15.50;99.90;;;;;;5032079;28;20180;-58
2022/09/12 02:30:19;;;;;;;2.90;2.25;;;15.50;99.90;;;;;;5032990;28;20636;-59
2022/09/12 02:32:57;;;;;;;2.53;2.00;;;15.50;99.90;;;;;;5033098;28;20183;-58
2022/09/12 02:35:43;;;;;;;3.85;2.50;;;15.50;99.90;;;;;;5033201;28;20325;-58
2022/09/12 02:38:25;;;;;;;2.85;2.00;;;15.50;99.90;;;;;;5033012;28;20191;-58
2022/09/12 02:40:51;;;;;;;2.97;1.95;;;15.50;99.90;;;;;;5032885;28;20199;-59
2022/09/12 02:43:17;;;;;;;3.92;2.47;;;15.50;99.90;;;;;;5031946;28;20180;-59
2022/09/12 02:45:43;;;;;;;2.08;1.83;;;15.50;99.90;;;;;;5033216;28;20241;-58
2022/09/12 02:48:17;;;;;;;2.55;1.92;;;15.50;99.90;;;;;;5033033;28;20574;-59
2022/09/12 02:50:42;;;;;;;2.58;1.98;;;15.50;99.90;;;;;;5032931;28;20176;-58
2022/09/12 02:53:09;;;;;;;3.50;2.35;;;15.50;99.90;;;;;;5032783;28;20549;-58
2022/09/12 02:55:36;;;;;;;3.10;2.30;;;15.50;99.90;;;;;;5033030;28;20172;-59
2022/09/12 02:58:05;;;;;;;2.70;2.10;;;15.50;99.90;;;;;;5033087;28;20618;-58
2022/09/12 03:00:38;;;;;;;3.45;2.22;;;15.50;99.90;;;;;;5032675;28;20250;-58
2022/09/12 03:03:37;;;;;;;3.17;2.08;;;15.40;99.90;;;;;;5032795;28;20696;-59
2022/09/12 03:06:15;;;;;;;3.88;2.50;;;15.40;99.90;;;;;;5032940;28;20219;-58
2022/09/12 03:08:49;;;;;;;2.72;2.35;;;15.40;99.90;;;;;;5033050;28;20196;-58
2022/09/12 03:11:42;;;;;;;4.43;2.58;;;15.40;99.90;;;;;;5035337;28;20176;-58
2022/09/12 03:14:48;;;;;;;2.90;2.35;;;15.50;99.90;;;;;;5035842;28;20283;-58
2022/09/12 03:17:47;;;;;;;2.25;1.95;;;15.60;99.90;;;;;;5033094;28;20183;-58
2022/09/12 03:21:06;;;;;;;3.30;2.58;;;15.60;99.90;;;;;;5036124;28;20262;-58
2022/09/12 03:23:48;;;;;;;2.67;2.20;;;15.50;99.90;;;;;;5013901;28;20643;-59
2022/09/12 03:26:29;;;;;;;3.22;2.63;;;15.50;99.90;;;;;;5034634;28;20176;-59
2022/09/12 03:28:56;;;;;;;3.42;2.45;;;15.50;99.90;;;;;;5036423;28;20319;-58
2022/09/12 03:31:22;;;;;;;3.35;2.35;;;15.50;99.90;;;;;;5035013;28;20183;-59
2022/09/12 03:33:47;;;;;;;2.90;2.15;;;15.40;99.90;;;;;;5036162;28;20506;-58
2022/09/12 03:36:21;;;;;;;3.47;2.38;;;15.40;99.90;;;;;;5036394;28;20537;-58
2022/09/12 03:38:47;;;;;;;2.35;1.90;;;15.40;99.90;;;;;;5035689;28;20633;-61
2022/09/12 03:41:13;;;;;;;3.92;2.55;;;15.40;99.90;;;;;;5035796;28;20207;-58
2022/09/12 03:43:39;;;;;;;2.88;2.15;;;15.40;99.90;;;;;;5034756;28;20183;-59
2022/09/12 03:46:05;;;;;;;2.00;1.67;;;15.30;99.90;;;;;;5035976;28;20499;-59
2022/09/12 03:48:30;;;;;;;3.50;2.58;;;15.30;99.90;;;;;;5035928;28;20179;-58
2022/09/12 03:51:04;;;;;;;3.33;2.38;;;15.30;99.90;;;;;;5034526;28;20198;-58
2022/09/12 03:53:29;;;;;;;3.40;2.40;;;15.30;99.90;;;;;;5035124;28;20176;-58
2022/09/12 03:55:56;;;;;;;3.65;2.72;;;15.30;99.90;;;;;;5034988;28;20176;-59
2022/09/12 03:58:22;;;;;;;2.80;2.10;;;15.30;99.90;;;;;;5034602;28;20172;-59
2022/09/12 04:00:48;;;;;;;3.40;2.55;;;15.30;99.90;;;;;;5035779;28;20568;-58
2022/09/12 04:03:14;;;;;;;2.80;2.45;;;15.30;99.90;;;;;;5035557;28;20198;-58
2022/09/12 04:05:39;;;;;;;3.78;2.38;;;15.30;99.90;;;;;;5035494;28;20622;-59
2022/09/12 04:08:05;;;;;;;3.92;2.42;;;15.30;99.90;;;;;;5035479;28;20184;-59
2022/09/12 04:10:31;;;;;;;3.25;2.30;;;15.30;99.90;;;;;;5035378;28;20179;-59
2022/09/12 04:12:57;;;;;;;4.40;2.28;;;15.30;99.90;;;;;;5035760;28;20645;-59
2022/09/12 04:15:23;;;;;;;2.95;2.42;;;15.10;99.90;;;;;;5035263;28;20222;-58
2022/09/12 04:17:48;;;;;;;3.55;2.47;;;15.10;99.90;;;;;;5017439;28;20180;-59
2022/09/12 04:20:14;;;;;;;3.33;2.35;;;15.10;99.90;;;;;;5017166;28;20215;-58
2022/09/12 04:22:40;;;;;;;3.72;2.63;;;15.10;99.90;;;;;;5035096;28;20172;-59
2022/09/12 04:25:06;;;;;;;4.25;2.50;;;15.00;99.90;;;;;;5035292;28;20187;-58
2022/09/12 04:27:32;;;;;;;2.70;1.95;;;15.10;99.90;;;;;;5035199;28;20172;-58
2022/09/12 04:30:00;;;;;;;2.47;2.15;;;15.00;99.90;;;;;;5035135;28;20172;-59
2022/09/12 04:32:25;;;;;;;2.80;2.40;;;15.00;99.90;;;;;;5033682;28;20279;-59
2022/09/12 04:34:51;;;;;;;3.28;2.28;;;15.00;99.90;;;;;;5034876;28;20258;-58
2022/09/12 04:37:17;;;;;;;4.20;2.38;;;14.90;99.90;;;;;;5033566;28;20172;-58
2022/09/12 04:39:43;;;;;;;2.88;2.10;;;15.00;99.90;;;;;;5035002;28;20526;-59
2022/09/12 04:42:08;;;;;;;3.70;2.40;;;14.90;99.90;;;;;;5034714;28;20176;-58
2022/09/12 04:44:34;;;;;;;4.10;2.50;;;14.80;99.90;;;;;;5033438;28;20172;-58
2022/09/12 04:47:00;;;;;;;3.00;2.17;;;14.60;99.90;;;;;;5052225;28;20198;-58
2022/09/12 04:49:25;;;;;;;3.67;2.53;;;14.70;99.90;;;;;;5054522;28;20179;-59
2022/09/12 04:51:53;;;;;;;4.53;2.75;;;14.60;99.90;;;;;;5054505;28;20180;-58
2022/09/12 04:54:19;;;;;;;3.47;2.20;;;14.60;99.90;;;;;;5053574;28;20233;-59
2022/09/12 04:56:47;;;;;;;3.85;2.30;;;14.70;99.90;;;;;;5054625;28;20190;-58
2022/09/12 04:59:15;;;;;;;3.08;2.60;;;14.70;99.90;;;;;;5054447;28;20171;-58
2022/09/12 05:01:41;;;;;;;3.85;2.60;;;14.70;99.90;;;;;;5054153;28;20211;-58
2022/09/12 05:04:09;;;;;;;3.25;2.47;;;14.70;99.90;;;;;;5053943;28;20636;-58
2022/09/12 05:06:36;;;;;;;2.72;1.83;;;14.70;99.90;;;;;;5053362;28;20167;-57
2022/09/12 05:09:04;;;;;;;3.22;2.42;;;14.70;99.90;;;;;;5054338;28;20174;-58
2022/09/12 05:11:33;;;;;;;3.50;2.45;;;14.70;99.90;;;;;;5054251;28;20175;-58
2022/09/12 05:13:59;;;;;;;2.20;1.90;;;14.70;99.90;;;;;;5054030;28;20180;-58
2022/09/12 05:16:26;;;;;;;3.25;2.13;;;14.70;99.90;;;;;;5054110;28;20190;-57
2022/09/12 05:18:52;;;;;;;3.22;2.30;;;14.70;99.90;;;;;;5054015;28;20172;-58
2022/09/12 05:21:20;;;;;;;5.05;2.50;;;14.70;99.90;;;;;;5053826;28;20285;-58
2022/09/12 05:23:49;;;;;;;4.13;2.60;;;14.70;99.90;;;;;;5053901;28;20270;-58
2022/09/12 05:26:15;;;;;;;2.85;2.03;;;14.70;99.90;;;;;;5054032;28;20197;-58
2022/09/12 05:28:42;;;;;;;3.30;2.40;;;14.60;99.90;;;;;;5053889;28;20190;-58
2022/09/12 05:31:10;;;;;;;3.35;2.55;;;14.60;99.90;;;;;;5053973;28;20179;-58
2022/09/12 05:33:37;;;;;;;3.25;2.10;;;14.60;99.90;;;;;;5053299;28;20179;-58
2022/09/12 05:36:05;;;;;;;2.60;2.22;;;14.60;99.90;;;;;;5053975;28;20201;-58
2022/09/12 05:38:34;;;;;;;3.08;2.33;;;14.60;99.90;;;;;;5053836;28;20194;-58
2022/09/12 05:41:11;;;;;;;3.92;2.63;;;14.60;99.90;;;;;;5053508;28;20290;-58
2022/09/12 05:43:38;;;;;;;3.00;2.30;;;14.60;99.90;;;;;;5053569;28;20171;-58
2022/09/12 05:46:08;;;;;;;2.65;1.95;;;14.60;99.90;;;;;;5052238;28;20589;-59
2022/09/12 05:48:37;;;;;;;3.13;2.30;;;14.60;99.90;;;;;;5053637;28;20175;-58
2022/09/12 05:51:09;;;;;;;3.13;2.53;;;14.60;99.90;;;;;;5053483;28;20183;-58
2022/09/12 05:53:36;;;;;;;3.15;2.42;;;14.60;99.90;;;;;;5053590;28;20168;-58
2022/09/12 05:56:10;;;;;;;3.45;2.17;;;14.60;99.90;;;;;;5052384;28;20168;-58
2022/09/12 05:58:40;;;;;;;2.63;2.17;;;14.60;99.90;;;;;;5053417;28;20199;-58
2022/09/12 06:01:09;;;;;;;3.40;2.47;;;14.70;99.90;;;;;;5053453;28;20241;-58
2022/09/12 06:03:38;;;;;;;2.67;2.42;;;14.70;99.90;;;;;;5053443;28;20233;-57
2022/09/12 06:06:05;;;;;;;3.97;2.45;;;14.70;99.90;;;;;;5053454;28;20163;-58
2022/09/12 06:08:32;;;;;;;3.95;2.60;;;14.70;99.90;;;;;;5051928;28;20187;-58
2022/09/12 06:11:03;;;;;;;3.40;2.55;;;14.80;99.90;;;;;;5053214;28;20640;-58
2022/09/12 06:13:35;;;;;;;3.53;2.47;;;14.80;99.90;;;;;;5052098;28;20178;-58
2022/09/12 06:16:10;;;;;;;4.05;2.75;;;15.00;99.90;;;;;;5053366;28;20198;-58
2022/09/12 06:18:37;;;;;;;3.60;2.35;;;15.00;99.90;;;;;;5053179;28;20175;-58
2022/09/12 06:21:04;;;;;;;4.00;3.13;;;15.20;99.90;;;;;;5053213;28;20203;-58
2022/09/12 06:23:30;;;;;;;4.57;2.38;;;15.30;99.90;;;;;;5053065;28;20510;-58
2022/09/12 06:25:56;;;;;;;3.58;2.55;;;15.50;99.90;;;;;;5052923;28;20236;-59
2022/09/12 06:28:22;;;;;;;2.97;2.47;;;15.60;99.90;;;;;;5053014;28;20213;-58
2022/09/12 06:30:48;;;;;;;3.65;2.38;;;15.80;99.90;;;;;;5051858;28;20181;-58
2022/09/12 06:33:14;;;;;;;4.22;2.80;;;15.80;99.90;;;;;;5035262;28;20206;-58
2022/09/12 06:35:40;;;;;;;3.72;2.47;;;15.90;99.90;;;;;;5053079;28;20199;-58
2022/09/12 06:38:06;;;;;;;3.15;2.53;;;16.00;99.90;;;;;;5051824;28;20234;-58
2022/09/12 06:40:32;;;;;;;3.35;2.63;;;16.00;99.90;;;;;;5053061;28;20277;-59
2022/09/12 06:42:58;;;;;;;3.88;2.40;;;16.10;99.90;;;;;;5053761;28;20529;-58
2022/09/12 06:45:25;;;;;;;3.05;2.30;;;16.20;99.90;;;;;;5055686;28;20206;-58
2022/09/12 06:47:50;;;;;;;2.28;1.90;;;16.30;99.90;;;;;;5057004;28;20179;-58
2022/09/12 06:50:16;;;;;;;3.47;2.22;;;16.40;99.90;;;;;;5056859;28;20206;-58
2022/09/12 06:52:43;;;;;;;4.05;2.60;;;16.50;99.90;;;;;;5055606;28;20259;-58
2022/09/12 06:55:09;;;;;;;3.30;2.45;;;16.50;99.90;;;;;;5057203;28;20187;-58
2022/09/12 06:57:37;;;;;;;4.25;2.40;;;16.60;99.90;;;;;;5056648;28;20541;-57
2022/09/12 07:00:06;;;;;;;2.88;2.15;;;16.50;99.90;;;;;;5056676;28;20568;-58
2022/09/12 07:02:32;;;;;;;4.03;2.58;;;16.70;99.90;;;;;;5056610;28;20175;-58
2022/09/12 07:04:58;;;;;;;2.63;2.00;;;16.80;99.90;;;;;;5055692;28;20182;-59
2022/09/12 07:07:23;;;;;;;3.85;2.30;;;16.90;99.90;;;;;;5055274;28;20176;-58
2022/09/12 07:09:49;;;;;;;3.38;2.40;;;16.90;99.90;;;;;;5055314;28;20179;-58
2022/09/12 07:12:15;;;;;;;3.20;2.10;;;17.10;99.90;;;;;;5056622;28;20179;-58
2022/09/12 07:14:40;;;;;;;2.97;2.00;;;17.20;99.90;;;;;;5056502;28;20193;-58
2022/09/12 07:17:07;;;;;;;4.40;2.85;;;17.30;99.90;;;;;;5056551;28;20178;-58
2022/09/12 07:19:33;;;;;;;2.58;2.10;;;17.30;99.90;;;;;;5056361;28;20191;-58
2022/09/12 07:21:59;;;;;;;3.10;2.13;;;17.40;99.90;;;;;;5056188;28;20683;-58
2022/09/12 07:24:25;;;;;;;3.45;2.17;;;17.50;99.90;;;;;;5056399;28;20195;-58
2022/09/12 07:26:51;;;;;;;2.28;1.90;;;17.60;99.90;;;;;;5056367;28;20225;-58
2022/09/12 07:29:17;;;;;;;2.95;2.20;;;17.60;99.90;;;;;;5054954;28;20168;-58
2022/09/12 07:31:43;;;;;;;2.85;2.20;;;17.70;99.90;;;;;;5056126;28;20258;-58
2022/09/12 07:34:09;;;;;;;2.80;1.95;;;17.80;99.90;;;;;;5056128;28;20237;-58
2022/09/12 07:36:35;;;;;;;3.10;2.15;;;17.90;99.90;;;;;;5055943;28;20637;-58
2022/09/12 07:39:01;;;;;;;2.90;2.00;;;18.00;99.90;;;;;;5056153;28;20167;-58
2022/09/12 07:41:29;;;;;;;2.65;1.88;;;18.10;99.90;;;;;;5054886;28;20223;-58
2022/09/12 07:43:57;;;;;;;2.92;2.10;;;18.10;99.90;;;;;;5055827;28;20220;-58
2022/09/12 07:46:23;;;;;;;3.22;2.20;;;18.30;99.90;;;;;;5055865;28;20189;-58
2022/09/12 07:48:54;;;;;;;3.35;2.25;;;18.40;99.90;;;;;;5055799;28;20273;-58
2022/09/12 07:51:22;;;;;;;4.38;1.77;;;18.50;99.90;;;;;;5055968;28;20666;-58
2022/09/12 07:53:48;;;;;;;2.58;2.00;;;18.70;99.90;;;;;;5055850;28;20182;-58
2022/09/12 07:56:14;;;;;;;2.58;2.00;;;18.80;99.90;;;;;;5055026;28;20179;-58
2022/09/12 07:58:42;;;;;;;2.33;1.88;;;19.00;99.90;;;;;;5055949;28;20202;-58
2022/09/12 08:01:12;;;;;;;2.42;2.05;;;19.10;99.90;;;;;;5054321;28;20202;-58
2022/09/12 08:03:40;;;;;;;2.35;2.15;;;19.30;99.90;;;;;;5055392;28;20560;-58
2022/09/12 08:09:47;;;;;;;2.58;1.80;;;19.40;99.90;;;;;;5055745;28;20178;-58
2022/09/12 08:12:15;;;;;;;1.63;1.40;;;19.50;99.90;;;;;;5055210;28;20653;-58
2022/09/12 08:14:40;;;;;;;1.98;1.50;;;19.80;99.90;;;;;;5055308;28;20223;-58
2022/09/12 08:17:06;;;;;;;2.28;1.75;;;19.90;99.90;;;;;;5055343;28;20651;-58
2022/09/12 08:19:32;;;;;;;2.22;1.73;;;20.00;99.90;;;;;;5054163;28;20175;-58
2022/09/12 08:21:57;;;;;;;1.52;1.40;;;20.00;99.90;;;;;;5053910;28;20294;-58
2022/09/12 08:24:23;;;;;;;1.80;1.55;;;20.10;99.90;;;;;;5054077;28;20651;-59
2022/09/12 08:26:50;;;;;;;2.03;1.65;;;20.20;99.90;;;;;;5054050;28;20202;-59
2022/09/12 08:29:16;;;;;;;1.73;1.52;;;20.10;99.90;;;;;;5055183;28;20628;-58
2022/09/12 08:31:42;;;;;;;2.22;1.50;;;20.00;99.90;;;;;;5053931;28;20548;-58
2022/09/12 08:34:08;;;;;;;1.77;1.42;;;20.10;99.90;;;;;;5055248;28;20190;-59
2022/09/12 08:36:34;;;;;;;2.03;1.58;;;20.20;99.90;;;;;;5053711;28;20194;-58
2022/09/12 08:39:04;;;;;;;1.83;1.40;;;20.20;99.90;;;;;;5054771;28;20179;-58
2022/09/12 08:41:37;;;;;;;1.52;1.30;;;20.30;99.90;;;;;;5054693;28;20203;-58
2022/09/12 08:44:36;;;;;;;1.63;1.50;;;20.30;99.90;;;;;;5054959;28;20183;-58
2022/09/12 08:47:18;;;;;;;2.00;1.38;;;20.50;99.90;;;;;;5054754;28;20572;-58
2022/09/12 08:50:16;;;;;;;1.63;1.52;;;20.70;99.90;;;;;;5054952;28;20171;-58
2022/09/12 08:52:42;;;;;;;1.30;1.10;;;20.60;99.90;;;;;;5054744;28;20174;-58
2022/09/12 08:55:34;;;;;;;1.42;1.30;;;20.80;99.90;;;;;;5054776;28;20171;-58
2022/09/12 08:58:06;;;;;;;2.67;1.67;;;20.90;99.90;;;;;;5037649;28;20282;-58
2022/09/12 09:01:03;;;;;;;1.88;1.50;;;20.80;99.90;;;;;;5054576;28;20676;-59
2022/09/12 09:04:08;;;;;;;2.10;1.30;;;20.80;99.90;;;;;;5053291;28;20175;-58
2022/09/12 09:06:40;;;;;;;1.92;1.70;;;21.00;99.90;;;;;;5053553;28;20175;-59
2022/09/12 09:09:54;;;;;;;1.20;1.10;;;21.00;99.90;;;;;;5054474;28;20171;-58
2022/09/12 09:12:32;;;;;;;1.50;1.05;;;21.30;99.90;;;;;;5034602;28;20653;-58
2022/09/12 09:15:20;;;;;;;1.25;1.13;;;21.40;99.90;;;;;;5054530;28;20278;-59
2022/09/12 09:18:23;;;;;;;1.23;1.10;;;21.60;99.90;;;;;;5054305;28;20544;-58
2022/09/12 09:20:55;;;;;;;1.80;1.25;;;21.70;99.90;;;;;;5053800;28;20222;-58
2022/09/12 09:23:32;;;;;;;1.15;1.05;;;21.50;99.90;;;;;;5054161;28;20220;-59
2022/09/12 09:26:07;;;;;;;1.55;1.02;;;21.70;99.90;;;;;;5054083;28;20177;-59
2022/09/12 09:28:48;;;;;;;1.80;1.17;;;22.00;99.90;;;;;;5052688;28;20198;-59
2022/09/12 09:31:23;;;;;;;1.13;1.02;;;22.10;99.90;;;;;;5054396;28;20171;-58
2022/09/12 09:33:52;;;;;;;1.00;0.73;;;22.20;99.90;;;;;;5054021;28;20643;-58
2022/09/12 09:36:27;;;;;;;0.90;0.90;;;22.20;99.90;;;;;;5053779;28;20179;-59
2022/09/12 09:39:04;;;;;;;1.05;0.98;;;22.10;99.90;;;;;;5054098;28;20535;-58
2022/09/12 09:41:39;;;;;;;0.85;0.68;;;22.20;99.90;;;;;;5053622;28;20557;-58
2022/09/12 09:44:04;;;;;;;1.35;1.02;;;22.20;99.90;;;;;;5053949;28;20214;-58
2022/09/12 09:46:31;;;;;;;1.17;0.90;;;22.30;99.90;;;;;;5053799;28;20656;-59
2022/09/12 09:48:58;;;;;;;1.27;1.00;;;22.30;99.90;;;;;;5053511;28;20564;-59
2022/09/12 09:51:33;;;;;;;1.10;1.00;;;22.30;99.90;;;;;;5052483;28;20226;-58
2022/09/12 09:54:25;;;;;;;0.82;0.73;;;22.50;99.90;;;;;;5053543;28;20182;-58
2022/09/12 09:56:50;;;;;;;1.35;0.98;;;22.60;99.90;;;;;;5053599;28;20163;-59
2022/09/12 09:59:32;;;;;;;0.70;0.70;;;22.50;99.90;;;;;;5053587;28;20266;-58
2022/09/12 10:02:02;;;;;;;0.93;0.80;;;22.70;99.90;;;;;;5053369;28;20246;-58
2022/09/12 10:04:30;;;;;;;0.93;0.80;;;22.70;99.90;;;;;;5053249;28;20176;-58
2022/09/12 10:07:02;;;;;;;0.88;0.88;;;22.70;99.90;;;;;;5053444;28;20655;-58
2022/09/12 10:09:31;;;;;;;2.75;0.82;;;23.00;99.90;;;;;;5053519;28;20229;-58
2022/09/12 10:11:58;;;;;;;0.90;0.80;;;23.10;99.90;;;;;;5053397;28;20179;-59
2022/09/12 10:14:33;;;;;;;0.70;0.55;;;23.30;99.90;;;;;;5053280;28;20195;-58
2022/09/12 10:17:02;;;;;;;1.05;0.80;;;23.30;99.90;;;;;;5053147;28;20670;-58
2022/09/12 10:19:41;;;;;;;0.93;0.80;;;23.10;99.90;;;;;;5053087;28;20521;-58
2022/09/12 10:22:17;;;;;;;0.80;0.70;;;23.10;99.90;;;;;;5053372;28;20210;-58
2022/09/12 10:24:48;;;;;;;0.98;0.82;;;23.20;99.90;;;;;;5053281;28;20181;-58
2022/09/12 10:27:23;;;;;;;0.60;0.60;;;23.30;99.90;;;;;;5051837;28;20229;-58
2022/09/12 10:30:16;;;;;;;1.75;0.88;;;23.30;99.90;;;;;;5053383;28;20177;-58
2022/09/12 10:32:51;;;;;;;1.95;0.80;;;23.50;99.90;;;;;;5047587;28;20183;-58
2022/09/12 10:35:27;;;;;;;0.70;0.55;;;23.40;99.90;;;;;;5053108;28;20181;-58
2022/09/12 10:37:59;;;;;;;1.23;0.60;;;23.60;99.90;;;;;;5052971;28;20205;-58
2022/09/12 10:40:32;;;;;;;1.25;0.80;;;23.50;99.90;;;;;;5052991;28;20661;-58
2022/09/12 10:42:59;;;;;;;1.10;0.70;;;23.60;99.90;;;;;;5053047;28;20171;-58
2022/09/12 10:45:29;;;;;;;0.80;0.65;;;23.70;99.90;;;;;;5053310;28;20600;-59
2022/09/12 10:48:00;;;;;;;0.70;0.60;;;23.70;99.90;;;;;;5053031;28;20167;-59
2022/09/12 10:50:40;;;;;;;0.73;0.70;;;23.70;99.90;;;;;;5053141;28;20179;-59
2022/09/12 10:53:22;;;;;;;1.58;0.68;;;23.70;99.90;;;;;;5051657;28;20617;-59
2022/09/12 10:56:03;;;;;;;1.33;0.70;;;23.80;99.90;;;;;;5051625;28;20175;-58
2022/09/12 10:58:50;;;;;;;1.80;0.68;;;23.70;99.90;;;;;;5052755;28;20176;-58
2022/09/12 11:01:31;;;;;;;0.60;0.60;;;23.80;99.90;;;;;;5052985;28;20564;-58
2022/09/12 11:04:18;;;;;;;0.60;0.60;;;23.90;99.90;;;;;;5052818;28;20176;-58
2022/09/12 11:07:16;;;;;;;1.10;0.88;;;24.10;99.90;;;;;;5052677;28;20289;-58
2022/09/12 11:09:44;;;;;;;0.70;0.70;;;24.10;99.90;;;;;;5052833;28;20171;-58
2022/09/12 11:12:25;;;;;;;0.70;0.70;;;23.90;99.90;;;;;;5052982;28;20186;-58
2022/09/12 11:15:18;;;;;;;0.80;0.65;;;23.80;99.90;;;;;;5052538;28;20195;-58
2022/09/12 11:17:53;;;;;;;0.68;0.60;;;23.90;99.90;;;;;;5052834;28;20172;-59
2022/09/12 11:20:43;;;;;;;1.85;0.70;;;23.80;99.90;;;;;;5052468;28;20209;-59
2022/09/12 11:23:24;;;;;;;0.77;0.68;;;23.90;99.90;;;;;;5052555;28;20175;-59
2022/09/12 11:26:04;;;;;;;2.17;0.80;;;23.90;99.90;;;;;;5052867;28;20175;-58
2022/09/12 11:28:49;;;;;;;0.75;0.75;;;24.00;99.90;;;;;;5052486;28;20170;-59
2022/09/12 11:31:27;;;;;;;0.55;0.55;;;24.20;99.90;;;;;;5055516;28;20175;-59
2022/09/12 11:33:53;;;;;;;0.68;0.65;;;24.40;99.90;;;;;;5056085;28;20167;-58
2022/09/12 11:36:56;;;;;;;1.00;0.80;;;24.40;99.90;;;;;;5054818;28;20552;-58
2022/09/12 11:39:31;;;;;;;0.52;0.52;;;24.40;99.90;;;;;;5043665;28;20179;-58
2022/09/12 11:42:02;;;;;;;0.85;0.73;;;24.40;99.90;;;;;;5056010;28;20242;-59
2022/09/12 11:44:32;;;;;;;0.85;0.85;;;24.40;99.90;;;;;;5055998;28;20167;-58
2022/09/12 11:46:59;;;;;;;0.82;0.82;;;24.40;99.90;;;;;;5056078;28;20182;-58
2022/09/12 11:49:32;;;;;;;1.45;0.73;;;24.20;99.90;;;;;;5055953;28;20171;-58
2022/09/12 11:52:10;;;;;;;0.70;0.70;;;24.30;99.90;;;;;;5055909;28;20182;-58
2022/09/12 11:54:56;;;;;;;1.20;1.13;;;24.50;99.90;;;;;;5055747;28;20171;-58
2022/09/12 11:57:39;;;;;;;0.63;0.63;;;24.70;99.90;;;;;;5055796;28;20168;-58
2022/09/12 12:00:13;;;;;;;0.95;0.80;;;24.60;99.90;;;;;;5055681;28;20253;-58
2022/09/12 12:02:54;;;;;;;0.65;0.60;;;24.40;99.80;;;;;;5055693;28;20166;-58
2022/09/12 12:05:23;;;;;;;0.75;0.73;;;24.70;99.90;;;;;;5055429;28;20178;-59
2022/09/12 12:08:00;;;;;;;0.55;0.55;;;24.40;99.90;;;;;;5055468;28;20171;-58
2022/09/12 12:10:42;;;;;;;1.38;0.60;;;24.40;99.90;;;;;;5054351;28;20179;-58
2022/09/12 12:13:14;;;;;;;0.70;0.60;;;24.40;99.90;;;;;;5055459;28;20545;-59
2022/09/12 12:15:47;;;;;;;0.70;0.70;;;24.40;99.90;;;;;;5055690;28;20194;-58
2022/09/12 12:18:30;;;;;;;1.88;0.77;;;24.60;99.90;;;;;;5055495;28;20195;-58
2022/09/12 12:21:18;;;;;;;0.95;0.70;;;24.70;99.90;;;;;;5055333;28;20217;-59
2022/09/12 12:24:21;;;;;;;0.88;0.80;;;24.60;99.90;;;;;;5053997;28;20588;-59
2022/09/12 12:27:03;;;;;;;0.70;0.70;;;24.60;99.90;;;;;;5054732;28;20175;-58
2022/09/12 12:29:38;;;;;;;1.48;0.60;;;24.50;99.90;;;;;;5055218;28;20163;-59
2022/09/12 12:32:03;;;;;;;0.50;0.50;;;24.50;99.90;;;;;;5054944;28;20189;-58
2022/09/12 12:35:22;;;;;;;1.58;0.60;;;24.70;99.90;;;;;;5055456;28;20183;-58
2022/09/12 12:37:51;;;;;;;0.95;0.80;;;24.80;99.40;;;;;;5053696;28;20187;-59
2022/09/12 12:40:28;;;;;;;0.60;0.55;;;24.50;99.00;;;;;;5054701;28;20266;-59
2022/09/12 12:43:02;;;;;;;1.13;0.70;;;24.70;99.90;;;;;;5054709;28;20242;-58
2022/09/12 12:45:27;;;;;;;0.93;0.77;;;24.50;99.60;;;;;;5054888;28;20198;-59
2022/09/12 12:47:55;;;;;;;0.60;0.60;;;24.50;99.80;;;;;;5054764;28;20175;-58
2022/09/12 12:50:28;;;;;;;0.60;0.60;;;24.30;99.50;;;;;;5054691;28;20541;-58
2022/09/12 12:53:01;;;;;;;0.80;0.70;;;24.40;99.80;;;;;;5054679;28;20171;-58
2022/09/12 12:55:37;;;;;;;0.93;0.80;;;24.40;99.40;;;;;;5054555;28;20245;-58
2022/09/12 12:58:05;;;;;;;0.80;0.70;;;24.30;99.80;;;;;;5054760;28;20206;-58
2022/09/12 13:00:37;;;;;;;1.95;0.98;;;24.20;99.60;;;;;;5054506;28;20290;-58
2022/09/12 13:03:05;;;;;;;1.27;0.65;;;24.10;99.90;;;;;;5054371;28;20209;-58
2022/09/12 13:05:47;;;;;;;0.68;0.60;;;24.20;99.00;;;;;;5054325;28;20178;-58
2022/09/12 13:08:15;;;;;;;0.85;0.70;;;24.20;99.70;;;;;;5054594;28;20171;-58
2022/09/12 13:10:58;;;;;;;0.90;0.55;;;23.90;99.90;;;;;;5054391;28;20179;-58
2022/09/12 13:13:55;;;;;;;0.60;0.60;;;24.10;99.90;;;;;;5054327;28;20171;-58
2022/09/12 13:16:53;;;;;;;0.77;0.77;;;24.10;99.90;;;;;;5054457;28;20180;-59
2022/09/12 13:19:28;;;;;;;0.85;0.75;;;24.20;99.90;;;;;;5054198;28;20194;-58
2022/09/12 13:21:55;;;;;;;0.50;0.47;;;24.20;99.80;;;;;;5054095;28;20210;-58